CMA CGM La Boussole — A8FZ6 — position and weather

sailwx.info

Track history (hours):
 
Tides and Currents Weather Stations Pressure Air Temp Water Temp Dewpoint Dewpoint Depression Visibility Wind Speed Wind Dir Waves Ship Positions

CMA CGM La Boussole

Last reported at 2016-Nov-29 07:26 UTC. Time now 2016-Dec-04 03:56 UTC.
Position N 35°57' W 005°32'.

Length 210.1 m; beam 30.2 m; draft 11.5 m.

Type: Ship (hazmat cat A). MMSI: 636017045.

Date/timePositionNaut miles runAvg speedWind from/ knotsBaromVisibWave heightAir tempDewpointWater temp
2016-Nov-29 07:26N 35°57' W 005°32'1112.9
2016-Nov-29 06:33N 36°01' W 005°19'11619.2
2016-Nov-29 00:31N 36°20' W 002°57'1920.0
2016-Nov-28 23:33N 36°22' W 002°34'2019.6
2016-Nov-28 22:33N 36°26' W 002°10'4119.8
2016-Nov-28 20:28N 36°53' W 001°31'3819.9
2016-Nov-28 18:33N 37°19' W 000°55'2019.5
2016-Nov-28 17:31N 37°32' W 000°36'11416.3
2016-Nov-28 10:33N 39°25' W 000°16'3 2.9
2016-Nov-28 09:31N 39°27' W 000°19'0 0.0
2016-Nov-28 08:31N 39°27' W 000°19'0 0.0
2016-Nov-28 07:31N 39°27' W 000°19'0 0.0
2016-Nov-28 06:31N 39°27' W 000°19'0 0.0
2016-Nov-28 05:31N 39°27' W 000°19'0 0.0
2016-Nov-28 04:31N 39°27' W 000°19'0 0.0
2016-Nov-28 03:31N 39°27' W 000°19'0 0.0
2016-Nov-28 02:31N 39°27' W 000°19'0 0.0
2016-Nov-28 01:31N 39°27' W 000°19'0 0.0
2016-Nov-28 00:31N 39°27' W 000°19'0 0.0
2016-Nov-27 23:31N 39°27' W 000°19'0 0.0
2016-Nov-27 22:31N 39°27' W 000°19'0 0.0
2016-Nov-27 21:31N 39°27' W 000°19'0 0.0
2016-Nov-27 20:31N 39°27' W 000°19'0 0.0
2016-Nov-27 19:31N 39°27' W 000°19'0 0.0
2016-Nov-27 18:31N 39°27' W 000°19'0 0.0
2016-Nov-27 17:31N 39°27' W 000°19'0 0.0
2016-Nov-27 16:31N 39°27' W 000°19'0 0.0
2016-Nov-27 15:31N 39°27' W 000°19'0 0.0
2016-Nov-27 14:31N 39°27' W 000°19'0 0.0
2016-Nov-27 13:31N 39°27' W 000°19'0 0.0
2016-Nov-27 12:31N 39°27' W 000°19'0 0.0
2016-Nov-27 11:31N 39°27' W 000°19'0 0.0
2016-Nov-27 10:31N 39°27' W 000°19'0 0.0
2016-Nov-27 09:31N 39°27' W 000°19'0 0.0
2016-Nov-27 08:31N 39°27' W 000°19'0 0.0
2016-Nov-27 07:32N 39°27' W 000°19'0 0.0
2016-Nov-27 06:32N 39°27' W 000°19'0 0.0
2016-Nov-27 05:32N 39°27' W 000°19'0 0.0
2016-Nov-27 04:32N 39°27' W 000°19'0 0.0
2016-Nov-27 03:32N 39°27' W 000°19'0 0.0
2016-Nov-27 02:32N 39°27' W 000°19'0 0.0
2016-Nov-27 01:33N 39°27' W 000°19'0 0.0
2016-Nov-27 00:33N 39°27' W 000°19'4 3.9
2016-Nov-26 23:33N 39°26' W 000°14'8519.8
2016-Nov-26 19:17N 40°22' E 001°08'1520.3
2016-Nov-26 18:33N 40°32' E 001°22'2020.3
2016-Nov-26 17:33N 40°48' E 001°39'2020.4
2016-Nov-26 16:33N 41°04' E 001°56'24 1.1
2016-Nov-25 18:22N 41°13' E 002°26'2 0.6
2016-Nov-25 14:29N 41°11' E 002°25'16312.6
2016-Nov-25 01:31N 43°09' E 004°56'1212.3
2016-Nov-25 00:32N 43°21' E 004°58'6 6.2
2016-Nov-24 23:30N 43°25' E 004°51'0 0.0
2016-Nov-24 22:30N 43°25' E 004°51'0 0.0
2016-Nov-24 21:30N 43°25' E 004°51'0 0.0
2016-Nov-24 19:30N 43°25' E 004°51'0 0.0
2016-Nov-24 18:30N 43°25' E 004°51'0 0.0
2016-Nov-24 17:33N 43°25' E 004°51'0 0.0
2016-Nov-24 16:33N 43°25' E 004°51'0 0.0
2016-Nov-24 15:33N 43°25' E 004°51'0 0.0
2016-Nov-24 14:33N 43°25' E 004°51'0 0.0
2016-Nov-24 13:33N 43°25' E 004°51'0 0.0
2016-Nov-24 12:33N 43°25' E 004°51'0 0.0
2016-Nov-24 11:33N 43°25' E 004°51'0 0.0
2016-Nov-24 10:27N 43°25' E 004°51'0 0.0
2016-Nov-24 09:27N 43°25' E 004°51'0 0.0
2016-Nov-24 08:24N 43°25' E 004°51'0 0.0
2016-Nov-24 07:30N 43°25' E 004°51'0 0.0
2016-Nov-24 06:29N 43°25' E 004°51'0 0.0
2016-Nov-24 05:29N 43°25' E 004°51'0 0.0
2016-Nov-24 04:33N 43°25' E 004°51'3 2.8
2016-Nov-24 03:33N 43°24' E 004°55'9 8.7
2016-Nov-24 02:33N 43°16' E 005°01'10011.0
2016-Nov-23 17:30N 43°17' E 007°18'5914.8
2016-Nov-23 13:32N 43°53' E 008°22'1414.1
2016-Nov-23 12:33N 44°03' E 008°35'1413.7
2016-Nov-23 11:33N 44°13' E 008°48'1211.6
2016-Nov-23 10:33N 44°23' E 008°57'3 2.5
2016-Nov-23 09:29N 44°24' E 008°54'0 0.0
2016-Nov-23 08:23N 44°24' E 008°54'0 0.0
2016-Nov-23 07:29N 44°24' E 008°54'0 0.0
2016-Nov-23 06:23N 44°24' E 008°54'0 0.0
2016-Nov-23 03:32N 44°24' E 008°54'0 0.0
2016-Nov-23 02:32N 44°24' E 008°54'0 0.0
2016-Nov-23 00:32N 44°24' E 008°54'0 0.0
2016-Nov-22 23:32N 44°24' E 008°54'0 0.0
2016-Nov-22 22:29N 44°24' E 008°54'0 0.0
2016-Nov-22 20:32N 44°24' E 008°54'0 0.0
2016-Nov-22 19:32N 44°24' E 008°54'0 0.0
2016-Nov-22 17:32N 44°24' E 008°54'0 0.0
2016-Nov-22 16:32N 44°24' E 008°54'0 0.0
2016-Nov-22 15:32N 44°24' E 008°54'3 3.5
2016-Nov-22 14:33N 44°22' E 008°58'1212.4
2016-Nov-22 13:33N 44°12' E 009°08'5618.8
2016-Nov-22 10:33N 43°30' E 010°00'1312.8
2016-Nov-22 09:33N 43°33' E 010°18'2 1.6
2016-Nov-22 08:33N 43°35' E 010°18'0 0.0
2016-Nov-22 07:33N 43°35' E 010°18'0 0.0
2016-Nov-22 05:33N 43°35' E 010°18'0 0.0
2016-Nov-22 04:33N 43°35' E 010°18'0 0.0
2016-Nov-22 03:33N 43°35' E 010°18'0 0.0
2016-Nov-22 02:33N 43°35' E 010°18'0 0.0
2016-Nov-21 23:33N 43°35' E 010°18'0 0.0
2016-Nov-21 21:33N 43°35' E 010°18'0 0.1
2016-Nov-21 17:34N 43°34' E 010°18'3612.0
2016-Nov-21 14:33N 43°14' E 009°37'2019.7
2016-Nov-21 13:33N 43°07' E 009°12'40520.2
2016-Nov-20 17:33N 38°41' E 002°29'40619.3
2016-Nov-19 20:34N 36°08' W 005°25'  
Track history (hours):
 
Tides and Currents Weather Stations Pressure Air Temp Water Temp Dewpoint Dewpoint Depression Visibility Wind Speed Wind Dir Waves Ship Positions

CMA CGM La Boussole

Last reported at 2016-Nov-29 07:26 UTC. Time now 2016-Dec-04 03:56 UTC.
Position N 35°57' W 005°32'.

Length 210.1 m; beam 30.2 m; draft 11.5 m.

Type: Ship (hazmat cat A). MMSI: 636017045.

Date/timePositionNaut miles runAvg speedWind from/ knotsBaromVisibWave heightAir tempDewpointWater temp
2016-Nov-29 07:26N 35°57' W 005°32'1112.9
2016-Nov-29 06:33N 36°01' W 005°19'11619.2
2016-Nov-29 00:31N 36°20' W 002°57'1920.0
2016-Nov-28 23:33N 36°22' W 002°34'2019.6
2016-Nov-28 22:33N 36°26' W 002°10'4119.8
2016-Nov-28 20:28N 36°53' W 001°31'3819.9
2016-Nov-28 18:33N 37°19' W 000°55'2019.5
2016-Nov-28 17:31N 37°32' W 000°36'11416.3
2016-Nov-28 10:33N 39°25' W 000°16'3 2.9
2016-Nov-28 09:31N 39°27' W 000°19'0 0.0
2016-Nov-28 08:31N 39°27' W 000°19'0 0.0
2016-Nov-28 07:31N 39°27' W 000°19'0 0.0
2016-Nov-28 06:31N 39°27' W 000°19'0 0.0
2016-Nov-28 05:31N 39°27' W 000°19'0 0.0
2016-Nov-28 04:31N 39°27' W 000°19'0 0.0
2016-Nov-28 03:31N 39°27' W 000°19'0 0.0
2016-Nov-28 02:31N 39°27' W 000°19'0 0.0
2016-Nov-28 01:31N 39°27' W 000°19'0 0.0
2016-Nov-28 00:31N 39°27' W 000°19'0 0.0
2016-Nov-27 23:31N 39°27' W 000°19'0 0.0
2016-Nov-27 22:31N 39°27' W 000°19'0 0.0
2016-Nov-27 21:31N 39°27' W 000°19'0 0.0
2016-Nov-27 20:31N 39°27' W 000°19'0 0.0
2016-Nov-27 19:31N 39°27' W 000°19'0 0.0
2016-Nov-27 18:31N 39°27' W 000°19'0 0.0
2016-Nov-27 17:31N 39°27' W 000°19'0 0.0
2016-Nov-27 16:31N 39°27' W 000°19'0 0.0
2016-Nov-27 15:31N 39°27' W 000°19'0 0.0
2016-Nov-27 14:31N 39°27' W 000°19'0 0.0
2016-Nov-27 13:31N 39°27' W 000°19'0 0.0
2016-Nov-27 12:31N 39°27' W 000°19'0 0.0
2016-Nov-27 11:31N 39°27' W 000°19'0 0.0
2016-Nov-27 10:31N 39°27' W 000°19'0 0.0
2016-Nov-27 09:31N 39°27' W 000°19'0 0.0
2016-Nov-27 08:31N 39°27' W 000°19'0 0.0
2016-Nov-27 07:32N 39°27' W 000°19'0 0.0
2016-Nov-27 06:32N 39°27' W 000°19'0 0.0
2016-Nov-27 05:32N 39°27' W 000°19'0 0.0
2016-Nov-27 04:32N 39°27' W 000°19'0 0.0
2016-Nov-27 03:32N 39°27' W 000°19'0 0.0
2016-Nov-27 02:32N 39°27' W 000°19'0 0.0
2016-Nov-27 01:33N 39°27' W 000°19'0 0.0
2016-Nov-27 00:33N 39°27' W 000°19'4 3.9
2016-Nov-26 23:33N 39°26' W 000°14'8519.8
2016-Nov-26 19:17N 40°22' E 001°08'1520.3
2016-Nov-26 18:33N 40°32' E 001°22'2020.3
2016-Nov-26 17:33N 40°48' E 001°39'2020.4
2016-Nov-26 16:33N 41°04' E 001°56'24 1.1
2016-Nov-25 18:22N 41°13' E 002°26'2 0.6
2016-Nov-25 14:29N 41°11' E 002°25'16312.6
2016-Nov-25 01:31N 43°09' E 004°56'1212.3
2016-Nov-25 00:32N 43°21' E 004°58'6 6.2
2016-Nov-24 23:30N 43°25' E 004°51'0 0.0
2016-Nov-24 22:30N 43°25' E 004°51'0 0.0
2016-Nov-24 21:30N 43°25' E 004°51'0 0.0
2016-Nov-24 19:30N 43°25' E 004°51'0 0.0
2016-Nov-24 18:30N 43°25' E 004°51'0 0.0
2016-Nov-24 17:33N 43°25' E 004°51'0 0.0
2016-Nov-24 16:33N 43°25' E 004°51'0 0.0
2016-Nov-24 15:33N 43°25' E 004°51'0 0.0
2016-Nov-24 14:33N 43°25' E 004°51'0 0.0
2016-Nov-24 13:33N 43°25' E 004°51'0 0.0
2016-Nov-24 12:33N 43°25' E 004°51'0 0.0
2016-Nov-24 11:33N 43°25' E 004°51'0 0.0
2016-Nov-24 10:27N 43°25' E 004°51'0 0.0
2016-Nov-24 09:27N 43°25' E 004°51'0 0.0
2016-Nov-24 08:24N 43°25' E 004°51'0 0.0
2016-Nov-24 07:30N 43°25' E 004°51'0 0.0
2016-Nov-24 06:29N 43°25' E 004°51'0 0.0
2016-Nov-24 05:29N 43°25' E 004°51'0 0.0
2016-Nov-24 04:33N 43°25' E 004°51'3 2.8
2016-Nov-24 03:33N 43°24' E 004°55'9 8.7
2016-Nov-24 02:33N 43°16' E 005°01'10011.0
2016-Nov-23 17:30N 43°17' E 007°18'5914.8
2016-Nov-23 13:32N 43°53' E 008°22'1414.1
2016-Nov-23 12:33N 44°03' E 008°35'1413.7
2016-Nov-23 11:33N 44°13' E 008°48'1211.6
2016-Nov-23 10:33N 44°23' E 008°57'3 2.5
2016-Nov-23 09:29N 44°24' E 008°54'0 0.0
2016-Nov-23 08:23N 44°24' E 008°54'0 0.0
2016-Nov-23 07:29N 44°24' E 008°54'0 0.0
2016-Nov-23 06:23N 44°24' E 008°54'0 0.0
2016-Nov-23 03:32N 44°24' E 008°54'0 0.0
2016-Nov-23 02:32N 44°24' E 008°54'0 0.0
2016-Nov-23 00:32N 44°24' E 008°54'0 0.0
2016-Nov-22 23:32N 44°24' E 008°54'0 0.0
2016-Nov-22 22:29N 44°24' E 008°54'0 0.0
2016-Nov-22 20:32N 44°24' E 008°54'0 0.0
2016-Nov-22 19:32N 44°24' E 008°54'0 0.0
2016-Nov-22 17:32N 44°24' E 008°54'0 0.0
2016-Nov-22 16:32N 44°24' E 008°54'0 0.0
2016-Nov-22 15:32N 44°24' E 008°54'3 3.5
2016-Nov-22 14:33N 44°22' E 008°58'1212.4
2016-Nov-22 13:33N 44°12' E 009°08'5618.8
2016-Nov-22 10:33N 43°30' E 010°00'1312.8
2016-Nov-22 09:33N 43°33' E 010°18'2 1.6
2016-Nov-22 08:33N 43°35' E 010°18'0 0.0
2016-Nov-22 07:33N 43°35' E 010°18'0 0.0
2016-Nov-22 05:33N 43°35' E 010°18'0 0.0
2016-Nov-22 04:33N 43°35' E 010°18'0 0.0
2016-Nov-22 03:33N 43°35' E 010°18'0 0.0
2016-Nov-22 02:33N 43°35' E 010°18'0 0.0
2016-Nov-21 23:33N 43°35' E 010°18'0 0.0
2016-Nov-21 21:33N 43°35' E 010°18'0 0.1
2016-Nov-21 17:34N 43°34' E 010°18'3612.0
2016-Nov-21 14:33N 43°14' E 009°37'2019.7
2016-Nov-21 13:33N 43°07' E 009°12'40520.2
2016-Nov-20 17:33N 38°41' E 002°29'40619.3
2016-Nov-19 20:34N 36°08' W 005°25'  

Dump ship's entire track history